Time;durP1;ratioP1;P1;durP2;ratioP2;P2;SDS_P1;SDS_P2;PMS_P1;PMS_P2;Temp;Humidity;BMP_temperature;BMP_pressure;BME280_temperature;BME280_humidity;BME280_pressure;Samples;Min_cycle;Max_cycle;Signal;HPM_P1;HPM_P2
2024/04/17 00:01:57;;;;;;;7.72;2.42;;;;;;;;;;5378980;26;20046;-65
2024/04/17 00:04:22;;;;;;;9.02;2.45;;;;;;;;;;5377044;26;20323;-63
2024/04/17 00:06:48;;;;;;;6.78;2.70;;;;;;;;;;5380103;26;20295;-63
2024/04/17 00:09:13;;;;;;;4.50;2.78;;;;;;;;;;5381052;26;20014;-66
2024/04/17 00:11:39;;;;;;;9.52;3.10;;;;;;;;;;5379658;26;20000;-64
2024/04/17 00:14:04;;;;;;;9.88;2.90;;;;;;;;;;5366028;26;20288;-62
2024/04/17 00:16:29;;;;;;;7.90;2.92;;;;;;;;;;5345665;26;20418;-63
2024/04/17 00:18:55;;;;;;;11.20;3.03;;;;;;;;;;5345636;26;20004;-61
2024/04/17 00:21:20;;;;;;;7.55;2.47;;;;;;;;;;5345099;26;20005;-63
2024/04/17 00:23:45;;;;;;;5.38;2.90;;;;;;;;;;5344584;26;20005;-63
2024/04/17 00:26:11;;;;;;;6.90;2.70;;;;;;;;;;5349815;26;20111;-64
2024/04/17 00:28:39;;;;;;;7.63;2.67;;;;;;;;;;5379761;26;20019;-64
2024/04/17 00:31:05;;;;;;;7.50;3.53;;;;;;;;;;5380597;26;20430;-63
2024/04/17 00:33:31;;;;;;;7.95;3.10;;;;;;;;;;5383592;26;20068;-64
2024/04/17 00:35:56;;;;;;;5.07;2.70;;;;;;;;;;5384423;26;20010;-62
2024/04/17 00:38:22;;;;;;;6.95;3.13;;;;;;;;;;5383106;26;20016;-63
2024/04/17 00:40:47;;;;;;;7.70;2.92;;;;;;;;;;5382589;26;20004;-63
2024/04/17 00:43:12;;;;;;;8.63;3.03;;;;;;;;;;5357408;26;20001;-63
2024/04/17 00:45:43;;;;;;;8.95;3.00;;;;;;;;;;5348634;26;20037;-62
2024/04/17 00:48:10;;;;;;;8.70;2.70;;;;;;;;;;5347997;26;20323;-62
2024/04/17 00:50:36;;;;;;;6.25;2.88;;;;;;;;;;5353653;26;20013;-62
2024/04/17 00:53:02;;;;;;;7.03;2.70;;;;;;;;;;5383641;26;20011;-64
2024/04/17 00:55:28;;;;;;;9.43;2.88;;;;;;;;;;5383925;26;20000;-63
2024/04/17 00:57:54;;;;;;;6.25;2.90;;;;;;;;;;5359760;26;20399;-64
2024/04/17 01:00:20;;;;;;;7.97;3.05;;;;;;;;;;5375596;26;20307;-65
2024/04/17 01:02:48;;;;;;;7.97;3.00;;;;;;;;;;5382974;26;20016;-64
2024/04/17 01:05:13;;;;;;;6.50;2.55;;;;;;;;;;5383851;26;20068;-63
2024/04/17 01:07:39;;;;;;;8.07;2.88;;;;;;;;;;5382716;26;20048;-64
2024/04/17 01:10:05;;;;;;;6.45;2.80;;;;;;;;;;5381815;26;20004;-64
2024/04/17 01:12:30;;;;;;;8.50;2.90;;;;;;;;;;5380082;26;20000;-64
2024/04/17 01:14:56;;;;;;;9.65;3.10;;;;;;;;;;5382042;26;20000;-64
2024/04/17 01:17:21;;;;;;;4.53;2.40;;;;;;;;;;5382730;26;20007;-63
2024/04/17 01:19:47;;;;;;;5.10;2.53;;;;;;;;;;5379272;26;20313;-63
2024/04/17 01:22:12;;;;;;;6.25;3.05;;;;;;;;;;5382314;26;20004;-62
2024/04/17 01:24:37;;;;;;;7.40;2.72;;;;;;;;;;5383530;26;20010;-63
2024/04/17 01:27:03;;;;;;;6.45;2.90;;;;;;;;;;5381788;26;19996;-64
2024/04/17 01:29:28;;;;;;;5.63;2.55;;;;;;;;;;5382428;26;20008;-62
2024/04/17 01:31:54;;;;;;;4.85;2.42;;;;;;;;;;5382033;26;20000;-62
2024/04/17 01:34:19;;;;;;;6.95;3.22;;;;;;;;;;5378044;26;20024;-65
2024/04/17 01:36:45;;;;;;;4.28;2.35;;;;;;;;;;5346500;26;19997;-63
2024/04/17 01:39:10;;;;;;;7.18;3.28;;;;;;;;;;5349519;26;20005;-65
2024/04/17 01:41:35;;;;;;;4.75;2.67;;;;;;;;;;5381889;26;20011;-63
2024/04/17 01:44:01;;;;;;;5.68;2.83;;;;;;;;;;5382265;26;20015;-64
2024/04/17 01:46:26;;;;;;;5.03;2.88;;;;;;;;;;5381822;26;20074;-64
2024/04/17 01:48:52;;;;;;;10.18;3.42;;;;;;;;;;5357072;26;20005;-63
2024/04/17 01:51:17;;;;;;;5.72;2.60;;;;;;;;;;5346959;26;20017;-65
2024/04/17 01:53:42;;;;;;;6.43;2.45;;;;;;;;;;5346787;26;20295;-63
2024/04/17 01:56:08;;;;;;;9.43;2.75;;;;;;;;;;5347928;26;19997;-65
2024/04/17 01:58:33;;;;;;;7.32;2.65;;;;;;;;;;5349168;26;20005;-62
2024/04/17 02:01:05;;;;;;;10.52;3.28;;;;;;;;;;5346868;26;20001;-63
2024/04/17 02:03:31;;;;;;;4.57;2.67;;;;;;;;;;5347327;26;20001;-61
2024/04/17 02:05:56;;;;;;;6.07;2.80;;;;;;;;;;5347787;26;20004;-64
2024/04/17 02:08:22;;;;;;;6.35;2.40;;;;;;;;;;5346189;26;20418;-66
2024/04/17 02:10:47;;;;;;;8.20;3.10;;;;;;;;;;5346942;26;20012;-65
2024/04/17 02:13:13;;;;;;;5.68;3.10;;;;;;;;;;5347821;26;20005;-64
2024/04/17 02:15:38;;;;;;;6.63;2.75;;;;;;;;;;5346510;26;20008;-63
2024/04/17 02:18:04;;;;;;;7.50;3.17;;;;;;;;;;5346354;26;20398;-63
2024/04/17 02:20:29;;;;;;;4.20;2.90;;;;;;;;;;5347917;26;20012;-63
2024/04/17 02:22:55;;;;;;;10.57;3.85;;;;;;;;;;5349027;26;20132;-63
2024/04/17 02:25:20;;;;;;;7.43;3.08;;;;;;;;;;5346200;26;20012;-63
2024/04/17 02:27:45;;;;;;;7.00;2.97;;;;;;;;;;5346542;26;20001;-62
2024/04/17 02:30:11;;;;;;;5.50;2.60;;;;;;;;;;5347456;26;20403;-66
2024/04/17 02:32:36;;;;;;;6.03;2.50;;;;;;;;;;5347138;26;20327;-64
2024/04/17 02:35:01;;;;;;;4.50;2.60;;;;;;;;;;5346388;26;20070;-60
2024/04/17 02:37:27;;;;;;;5.50;2.67;;;;;;;;;;5350364;26;20041;-64
2024/04/17 02:39:52;;;;;;;5.18;2.97;;;;;;;;;;5382513;26;20065;-64
2024/04/17 02:42:18;;;;;;;7.57;2.80;;;;;;;;;;5382040;26;20071;-64
2024/04/17 02:44:45;;;;;;;6.75;2.72;;;;;;;;;;5380626;26;20000;-64
2024/04/17 02:47:10;;;;;;;8.77;2.75;;;;;;;;;;5354101;26;20363;-63
2024/04/17 02:49:36;;;;;;;5.88;2.70;;;;;;;;;;5346732;26;20001;-63
2024/04/17 02:52:01;;;;;;;6.45;2.95;;;;;;;;;;5347544;26;20005;-64
2024/04/17 02:54:27;;;;;;;6.30;2.38;;;;;;;;;;5345535;26;20009;-64
2024/04/17 02:56:52;;;;;;;6.43;2.83;;;;;;;;;;5345740;26;19997;-65
2024/04/17 02:59:17;;;;;;;4.57;2.60;;;;;;;;;;5346704;26;20001;-64
2024/04/17 03:01:43;;;;;;;4.40;2.58;;;;;;;;;;5348847;26;20016;-63
2024/04/17 03:04:08;;;;;;;7.28;2.75;;;;;;;;;;5343412;26;20005;-64
2024/04/17 03:06:33;;;;;;;5.95;2.88;;;;;;;;;;5345800;26;20083;-62
2024/04/17 03:08:59;;;;;;;5.40;2.63;;;;;;;;;;5345312;26;20026;-65
2024/04/17 03:11:24;;;;;;;5.35;2.50;;;;;;;;;;5348997;26;20001;-64
2024/04/17 03:13:50;;;;;;;6.05;2.58;;;;;;;;;;5345510;26;20366;-64
2024/04/17 03:16:15;;;;;;;5.93;2.75;;;;;;;;;;5366001;26;20306;-63
2024/04/17 03:18:41;;;;;;;7.70;3.13;;;;;;;;;;5381520;26;20012;-63
2024/04/17 03:21:06;;;;;;;6.53;2.58;;;;;;;;;;5381087;26;19996;-63
2024/04/17 03:23:31;;;;;;;5.55;2.42;;;;;;;;;;5380536;26;20000;-65
2024/04/17 03:25:57;;;;;;;4.45;2.70;;;;;;;;;;5380353;26;20008;-64
2024/04/17 03:28:23;;;;;;;6.25;3.40;;;;;;;;;;5354898;26;20307;-65
2024/04/17 03:30:49;;;;;;;6.55;3.45;;;;;;;;;;5345509;26;20039;-66
2024/04/17 03:33:14;;;;;;;7.88;3.40;;;;;;;;;;5346560;26;20187;-64
2024/04/17 03:35:39;;;;;;;8.90;3.53;;;;;;;;;;5345106;26;20071;-63
2024/04/17 03:38:05;;;;;;;5.45;3.20;;;;;;;;;;5362828;26;20016;-64
2024/04/17 03:40:30;;;;;;;8.30;3.50;;;;;;;;;;5381147;26;20011;-65
2024/04/17 03:42:56;;;;;;;5.82;3.03;;;;;;;;;;5362172;26;20005;-65
2024/04/17 03:45:21;;;;;;;7.18;3.28;;;;;;;;;;5346270;26;20001;-63
2024/04/17 03:47:46;;;;;;;7.38;3.60;;;;;;;;;;5345349;26;20015;-64
2024/04/17 03:50:12;;;;;;;8.15;2.92;;;;;;;;;;5345374;26;20378;-64
2024/04/17 03:52:37;;;;;;;5.75;2.90;;;;;;;;;;5344476;26;20001;-62
2024/04/17 03:55:03;;;;;;;6.30;3.60;;;;;;;;;;5345355;26;20035;-64
2024/04/17 03:57:29;;;;;;;4.38;2.97;;;;;;;;;;5359761;26;20386;-63
2024/04/17 03:59:55;;;;;;;5.45;3.00;;;;;;;;;;5380219;26;20001;-63
2024/04/17 04:02:20;;;;;;;6.50;2.92;;;;;;;;;;5356954;26;20024;-64
2024/04/17 04:04:46;;;;;;;5.45;2.75;;;;;;;;;;5345062;26;20015;-63
2024/04/17 04:07:11;;;;;;;6.25;2.92;;;;;;;;;;5346198;26;20467;-64
2024/04/17 04:09:36;;;;;;;6.50;2.83;;;;;;;;;;5344697;26;20013;-66
2024/04/17 04:12:02;;;;;;;5.25;2.70;;;;;;;;;;5357049;26;20027;-65
2024/04/17 04:14:27;;;;;;;4.28;2.60;;;;;;;;;;5380584;26;20007;-64
2024/04/17 04:16:53;;;;;;;6.78;3.30;;;;;;;;;;5381639;26;20007;-63
2024/04/17 04:19:20;;;;;;;4.53;2.47;;;;;;;;;;5380962;26;20070;-65
2024/04/17 04:21:45;;;;;;;5.63;2.70;;;;;;;;;;5380326;26;19996;-63
2024/04/17 04:24:11;;;;;;;4.38;3.03;;;;;;;;;;5380533;26;20070;-64
2024/04/17 04:26:36;;;;;;;6.57;3.00;;;;;;;;;;5375605;26;20041;-66
2024/04/17 04:29:01;;;;;;;5.53;3.15;;;;;;;;;;5345809;26;20032;-65
2024/04/17 04:31:27;;;;;;;3.92;2.92;;;;;;;;;;5343670;26;20012;-65
2024/04/17 04:33:52;;;;;;;6.78;3.40;;;;;;;;;;5345745;26;20005;-64
2024/04/17 04:36:18;;;;;;;5.32;3.20;;;;;;;;;;5345763;26;20311;-66
2024/04/17 04:38:44;;;;;;;7.47;3.75;;;;;;;;;;5345292;26;20412;-65
2024/04/17 04:41:10;;;;;;;7.35;3.65;;;;;;;;;;5346312;26;20012;-60
2024/04/17 04:43:35;;;;;;;7.47;3.60;;;;;;;;;;5345841;26;20005;-64
2024/04/17 04:46:00;;;;;;;7.32;3.50;;;;;;;;;;5345531;26;20001;-64
2024/04/17 04:48:26;;;;;;;8.13;3.63;;;;;;;;;;5345180;26;20016;-63
2024/04/17 04:50:52;;;;;;;6.57;3.50;;;;;;;;;;5349080;26;20400;-66
2024/04/17 04:53:17;;;;;;;5.32;3.60;;;;;;;;;;5379932;26;20066;-64
2024/04/17 04:55:53;;;;;;;7.10;3.47;;;;;;;;;;5380255;26;20375;-64
2024/04/17 04:58:18;;;;;;;3.75;3.03;;;;;;;;;;5355542;26;20079;-65
2024/04/17 05:00:44;;;;;;;7.68;3.65;;;;;;;;;;5344402;26;20004;-66
2024/04/17 05:03:09;;;;;;;5.70;3.30;;;;;;;;;;5346614;26;20076;-63
2024/04/17 05:05:34;;;;;;;6.72;3.40;;;;;;;;;;5345106;26;20001;-65
2024/04/17 05:08:00;;;;;;;9.35;3.80;;;;;;;;;;5344827;26;20003;-65
2024/04/17 05:10:25;;;;;;;5.60;3.80;;;;;;;;;;5344538;26;19996;-64
2024/04/17 05:12:51;;;;;;;5.55;4.15;;;;;;;;;;5347166;26;20138;-64
2024/04/17 05:15:16;;;;;;;9.35;4.20;;;;;;;;;;5348751;26;20347;-65
2024/04/17 05:17:42;;;;;;;9.85;4.55;;;;;;;;;;5349725;26;20040;-63
2024/04/17 05:20:08;;;;;;;6.22;3.95;;;;;;;;;;5348223;26;20301;-63
2024/04/17 05:22:33;;;;;;;10.60;4.97;;;;;;;;;;5346985;26;20016;-65
2024/04/17 05:24:59;;;;;;;7.55;5.50;;;;;;;;;;5346890;26;20067;-65
2024/04/17 05:27:24;;;;;;;9.77;5.68;;;;;;;;;;5348147;26;20052;-64
2024/04/17 05:29:50;;;;;;;10.20;5.90;;;;;;;;;;5347916;26;20009;-64
2024/04/17 05:32:15;;;;;;;7.93;5.57;;;;;;;;;;5348029;26;20075;-65
2024/04/17 05:34:41;;;;;;;9.63;5.97;;;;;;;;;;5348335;26;20034;-65
2024/04/17 05:37:06;;;;;;;10.18;6.03;;;;;;;;;;5347776;26;20070;-65
2024/04/17 05:39:32;;;;;;;10.20;5.95;;;;;;;;;;5348188;26;19999;-64
2024/04/17 05:41:57;;;;;;;9.35;4.10;;;;;;;;;;5357024;26;20024;-66
2024/04/17 05:44:23;;;;;;;8.80;4.10;;;;;;;;;;5347170;26;20004;-63
2024/04/17 05:46:48;;;;;;;7.30;3.80;;;;;;;;;;5347475;26;20060;-63
2024/04/17 05:49:14;;;;;;;10.40;4.40;;;;;;;;;;5346045;26;20005;-61
2024/04/17 05:51:39;;;;;;;6.93;4.60;;;;;;;;;;5368964;26;20019;-66
2024/04/17 05:54:04;;;;;;;7.70;4.45;;;;;;;;;;5382817;26;20005;-64
2024/04/17 05:56:30;;;;;;;7.88;4.25;;;;;;;;;;5382868;26;20091;-62
2024/04/17 05:58:55;;;;;;;9.43;4.53;;;;;;;;;;5382335;26;20044;-64
2024/04/17 06:01:20;;;;;;;8.27;4.35;;;;;;;;;;5355124;26;20082;-65
2024/04/17 06:03:46;;;;;;;9.07;4.15;;;;;;;;;;5348001;26;20016;-65
2024/04/17 06:06:11;;;;;;;8.55;4.38;;;;;;;;;;5349814;26;20283;-66
2024/04/17 06:08:36;;;;;;;6.07;4.20;;;;;;;;;;5347353;26;19997;-65
2024/04/17 06:11:02;;;;;;;11.80;4.25;;;;;;;;;;5347947;26;20008;-65
2024/04/17 06:13:27;;;;;;;6.13;4.43;;;;;;;;;;5347838;26;20344;-63
2024/04/17 06:15:53;;;;;;;10.35;4.55;;;;;;;;;;5347331;26;19997;-65
2024/04/17 06:18:18;;;;;;;9.95;4.53;;;;;;;;;;5347514;26;20012;-65
2024/04/17 06:20:43;;;;;;;7.85;4.60;;;;;;;;;;5347989;26;20008;-65
2024/04/17 06:23:09;;;;;;;12.02;4.70;;;;;;;;;;5348532;26;20005;-66
2024/04/17 06:25:34;;;;;;;10.00;4.65;;;;;;;;;;5350342;26;20008;-63
2024/04/17 06:28:00;;;;;;;7.35;3.95;;;;;;;;;;5382106;26;20007;-63
2024/04/17 06:30:25;;;;;;;7.85;4.95;;;;;;;;;;5382868;26;20410;-62
2024/04/17 06:32:50;;;;;;;8.77;4.65;;;;;;;;;;5382542;26;20000;-64
2024/04/17 06:35:16;;;;;;;6.50;4.10;;;;;;;;;;5381314;26;20000;-62
2024/04/17 06:37:41;;;;;;;8.73;4.03;;;;;;;;;;5360803;26;20023;-65
2024/04/17 06:40:07;;;;;;;4.85;3.70;;;;;;;;;;5347657;26;20001;-63
2024/04/17 06:42:32;;;;;;;7.80;3.63;;;;;;;;;;5347626;26;20311;-63
2024/04/17 06:44:58;;;;;;;6.05;3.40;;;;;;;;;;5346186;26;20005;-62
2024/04/17 06:47:24;;;;;;;5.20;3.50;;;;;;;;;;5346847;26;20012;-62
2024/04/17 06:49:49;;;;;;;8.40;3.63;;;;;;;;;;5357364;26;20000;-62
2024/04/17 06:52:16;;;;;;;7.47;4.13;;;;;;;;;;5382920;26;20041;-63
2024/04/17 06:54:41;;;;;;;11.38;4.22;;;;;;;;;;5381282;26;20379;-63
2024/04/17 06:57:06;;;;;;;8.10;3.70;;;;;;;;;;5380761;26;20000;-62
2024/04/17 06:59:32;;;;;;;7.65;3.78;;;;;;;;;;5381697;26;20016;-63
2024/04/17 07:01:57;;;;;;;9.80;4.20;;;;;;;;;;5381785;26;20060;-62
2024/04/17 07:04:23;;;;;;;7.63;3.85;;;;;;;;;;5378717;26;20153;-63
2024/04/17 07:06:48;;;;;;;7.47;3.90;;;;;;;;;;5350972;26;20319;-64
2024/04/17 07:09:13;;;;;;;7.07;3.75;;;;;;;;;;5347270;26;20395;-62
2024/04/17 07:11:39;;;;;;;5.32;3.83;;;;;;;;;;5346698;26;19997;-62
2024/04/17 07:14:04;;;;;;;10.35;3.28;;;;;;;;;;5354257;26;20009;-63
2024/04/17 07:16:30;;;;;;;4.55;3.22;;;;;;;;;;5345900;26;20001;-63
2024/04/17 07:18:55;;;;;;;4.32;3.25;;;;;;;;;;5347653;26;20288;-64
2024/04/17 07:21:20;;;;;;;6.00;3.13;;;;;;;;;;5374296;26;20318;-62
2024/04/17 07:23:46;;;;;;;9.68;3.70;;;;;;;;;;5382039;26;20395;-64
2024/04/17 07:26:12;;;;;;;5.72;3.28;;;;;;;;;;5380790;26;20000;-64
2024/04/17 07:28:37;;;;;;;4.03;2.47;;;;;;;;;;5381277;26;20071;-64
2024/04/17 07:31:03;;;;;;;3.08;2.65;;;;;;;;;;5380770;26;20010;-64
2024/04/17 07:33:29;;;;;;;9.80;3.05;;;;;;;;;;5381191;26;19997;-63
2024/04/17 07:36:00;;;;;;;6.50;2.80;;;;;;;;;;5350134;26;20009;-63
2024/04/17 07:38:26;;;;;;;6.20;2.75;;;;;;;;;;5346171;26;20071;-63
2024/04/17 07:40:55;;;;;;;6.30;2.90;;;;;;;;;;5345926;26;20008;-62
2024/04/17 07:43:21;;;;;;;6.63;3.05;;;;;;;;;;5360358;26;20295;-69
2024/04/17 07:45:50;;;;;;;4.57;2.80;;;;;;;;;;5368570;26;20033;-66
2024/04/17 07:48:15;;;;;;;4.90;2.88;;;;;;;;;;5377401;26;20019;-68
2024/04/17 07:50:41;;;;;;;5.10;2.60;;;;;;;;;;5360343;26;20000;-69
2024/04/17 07:53:06;;;;;;;7.10;3.17;;;;;;;;;;5345571;26;20403;-67
2024/04/17 07:55:32;;;;;;;5.82;3.22;;;;;;;;;;5350703;26;20024;-65
2024/04/17 07:57:57;;;;;;;4.95;2.85;;;;;;;;;;5361832;26;20019;-65
2024/04/17 08:00:23;;;;;;;6.95;3.33;;;;;;;;;;5374804;26;20019;-64
2024/04/17 08:02:48;;;;;;;8.15;3.50;;;;;;;;;;5380424;26;20000;-66
2024/04/17 08:05:14;;;;;;;6.10;3.42;;;;;;;;;;5372919;26;20019;-64
2024/04/17 08:07:48;;;;;;;6.65;3.33;;;;;;;;;;5380751;26;20394;-69
2024/04/17 08:10:16;;;;;;;7.68;3.47;;;;;;;;;;5378573;26;20001;-64
2024/04/17 08:12:43;;;;;;;6.85;3.20;;;;;;;;;;5379595;26;20343;-64
2024/04/17 08:15:10;;;;;;;5.55;3.38;;;;;;;;;;5380457;26;19996;-64
2024/04/17 08:17:35;;;;;;;6.75;3.20;;;;;;;;;;5380882;26;20040;-64
2024/04/17 08:20:01;;;;;;;5.20;3.05;;;;;;;;;;5364810;26;20436;-67
2024/04/17 08:22:26;;;;;;;4.55;3.10;;;;;;;;;;5344440;26;20005;-67
2024/04/17 08:24:52;;;;;;;6.95;3.15;;;;;;;;;;5350000;26;20009;-66
2024/04/17 08:27:18;;;;;;;5.50;3.05;;;;;;;;;;5347999;26;20001;-66
2024/04/17 08:29:43;;;;;;;5.18;3.20;;;;;;;;;;5379483;26;20000;-64
2024/04/17 08:32:08;;;;;;;4.78;2.80;;;;;;;;;;5378800;26;20066;-65
2024/04/17 08:34:34;;;;;;;5.63;3.10;;;;;;;;;;5372256;26;20336;-66
2024/04/17 08:36:59;;;;;;;5.57;2.50;;;;;;;;;;5378753;26;20012;-65
2024/04/17 08:39:25;;;;;;;5.70;2.60;;;;;;;;;;5352361;26;20404;-66
2024/04/17 08:41:54;;;;;;;6.53;3.50;;;;;;;;;;5344513;26;20000;-64
2024/04/17 08:44:22;;;;;;;4.93;2.75;;;;;;;;;;5375783;26;20071;-69
2024/04/17 08:46:48;;;;;;;5.18;2.97;;;;;;;;;;5368263;26;20020;-66
2024/04/17 08:49:15;;;;;;;6.10;3.08;;;;;;;;;;5382298;26;20400;-70
2024/04/17 08:51:41;;;;;;;4.53;3.15;;;;;;;;;;5381394;26;20008;-71
2024/04/17 08:54:06;;;;;;;5.22;2.50;;;;;;;;;;5347390;26;20079;-66
2024/04/17 08:56:32;;;;;;;6.60;3.50;;;;;;;;;;5345388;26;20017;-64
2024/04/17 08:58:57;;;;;;;5.85;2.58;;;;;;;;;;5349909;26;20403;-65
2024/04/17 09:01:27;;;;;;;4.35;2.30;;;;;;;;;;5345828;26;20013;-64
2024/04/17 09:03:54;;;;;;;3.70;2.80;;;;;;;;;;5354601;26;20016;-64
2024/04/17 09:06:19;;;;;;;4.78;2.70;;;;;;;;;;5362490;26;20009;-65
2024/04/17 09:08:45;;;;;;;4.43;2.63;;;;;;;;;;5360519;26;20379;-70
2024/04/17 09:11:11;;;;;;;5.47;2.85;;;;;;;;;;5352436;26;20005;-68
2024/04/17 09:13:36;;;;;;;3.88;2.55;;;;;;;;;;5361387;26;20008;-65
2024/04/17 09:16:01;;;;;;;5.00;2.40;;;;;;;;;;5380685;26;20047;-68
2024/04/17 09:18:30;;;;;;;9.82;3.67;;;;;;;;;;5379291;26;20016;-67
2024/04/17 09:20:55;;;;;;;6.80;3.70;;;;;;;;;;5381213;26;20008;-65
2024/04/17 09:23:21;;;;;;;6.35;3.83;;;;;;;;;;5376678;26;20004;-66
2024/04/17 09:25:46;;;;;;;7.43;4.13;;;;;;;;;;5347598;26;20048;-66
2024/04/17 09:28:12;;;;;;;6.07;4.00;;;;;;;;;;5349269;26;20021;-70
2024/04/17 09:30:40;;;;;;;10.32;4.32;;;;;;;;;;5377860;26;20008;-68
2024/04/17 09:33:07;;;;;;;7.90;3.70;;;;;;;;;;5368846;26;20016;-69
2024/04/17 09:35:35;;;;;;;4.43;3.88;;;;;;;;;;5346373;26;20012;-67
2024/04/17 09:38:02;;;;;;;5.45;3.90;;;;;;;;;;5349158;26;20008;-68
2024/04/17 09:40:28;;;;;;;9.10;4.22;;;;;;;;;;5377647;26;20004;-65
2024/04/17 09:42:55;;;;;;;7.32;4.40;;;;;;;;;;5380882;26;20387;-64
2024/04/17 09:45:22;;;;;;;7.25;4.30;;;;;;;;;;5380985;26;20000;-65
2024/04/17 09:47:49;;;;;;;7.82;4.10;;;;;;;;;;5381515;26;20004;-67
2024/04/17 09:50:17;;;;;;;7.05;4.05;;;;;;;;;;5380828;26;20387;-68
2024/04/17 09:52:47;;;;;;;7.72;4.15;;;;;;;;;;5376314;26;20223;-68
2024/04/17 09:55:13;;;;;;;4.88;3.10;;;;;;;;;;5347880;26;20000;-67
2024/04/17 09:57:39;;;;;;;6.40;3.10;;;;;;;;;;5377693;26;20022;-67
2024/04/17 10:00:04;;;;;;;7.95;3.13;;;;;;;;;;5347421;26;20037;-72
2024/04/17 10:02:31;;;;;;;6.68;2.90;;;;;;;;;;5345980;26;20011;-70
2024/04/17 10:04:57;;;;;;;5.40;3.55;;;;;;;;;;5345866;26;20387;-68
2024/04/17 10:07:24;;;;;;;6.47;3.50;;;;;;;;;;5344826;26;20310;-68
2024/04/17 10:09:51;;;;;;;9.45;3.55;;;;;;;;;;5345663;26;20416;-71
2024/04/17 10:12:17;;;;;;;8.43;3.75;;;;;;;;;;5373640;26;20431;-67
2024/04/17 10:14:43;;;;;;;11.45;4.20;;;;;;;;;;5356249;26;20028;-64
2024/04/17 10:17:09;;;;;;;5.85;3.03;;;;;;;;;;5344368;26;20308;-68
2024/04/17 10:19:35;;;;;;;6.50;2.30;;;;;;;;;;5345892;26;20071;-66
2024/04/17 10:22:04;;;;;;;4.60;2.72;;;;;;;;;;5344788;26;20740;-71
2024/04/17 10:24:29;;;;;;;3.88;2.70;;;;;;;;;;5343886;26;20371;-68
2024/04/17 10:26:57;;;;;;;7.75;2.75;;;;;;;;;;5342753;26;20051;-69
2024/04/17 10:29:26;;;;;;;3.20;1.80;;;;;;;;;;5354075;26;20072;-69
2024/04/17 10:32:01;;;;;;;3.67;1.60;;;;;;;;;;5353185;26;20015;-74
2024/04/17 10:34:27;;;;;;;2.67;1.70;;;;;;;;;;5362830;26;20000;-69
2024/04/17 10:37:00;;;;;;;3.13;1.38;;;;;;;;;;5346740;26;20771;-71
2024/04/17 10:39:26;;;;;;;3.83;1.60;;;;;;;;;;5375680;26;20015;-71
2024/04/17 10:41:52;;;;;;;2.40;1.60;;;;;;;;;;5356450;26;20028;-73
2024/04/17 10:44:21;;;;;;;4.13;2.10;;;;;;;;;;5343064;26;20020;-70
2024/04/17 10:46:46;;;;;;;4.18;2.10;;;;;;;;;;5354824;26;20000;-72
2024/04/17 10:49:18;;;;;;;5.20;1.95;;;;;;;;;;5378831;26;20387;-73
2024/04/17 10:51:44;;;;;;;6.97;1.85;;;;;;;;;;5374494;26;20087;-72
2024/04/17 10:54:12;;;;;;;5.38;1.67;;;;;;;;;;5348994;26;20016;-73
2024/04/17 10:56:38;;;;;;;4.25;2.10;;;;;;;;;;5352545;26;20037;-71
2024/04/17 10:59:03;;;;;;;7.28;2.38;;;;;;;;;;5337448;26;20008;-70
2024/04/17 11:01:30;;;;;;;7.32;2.78;;;;;;;;;;5380822;26;20004;-71
2024/04/17 11:03:56;;;;;;;3.92;2.20;;;;;;;;;;5377264;26;20299;-71
2024/04/17 11:06:22;;;;;;;4.60;2.40;;;;;;;;;;5346315;26;20014;-71
2024/04/17 11:08:48;;;;;;;3.20;2.30;;;;;;;;;;5374947;26;20284;-76
2024/04/17 11:11:15;;;;;;;4.43;2.60;;;;;;;;;;5328933;26;20024;-72
2024/04/17 11:13:46;;;;;;;7.20;2.75;;;;;;;;;;5352054;26;20009;-70
2024/04/17 11:16:12;;;;;;;5.20;2.40;;;;;;;;;;5378222;26;20008;-72
2024/04/17 11:18:37;;;;;;;3.88;2.45;;;;;;;;;;5379462;26;20292;-71
2024/04/17 11:21:03;;;;;;;9.88;2.10;;;;;;;;;;5377574;26;20000;-66
2024/04/17 11:23:37;;;;;;;12.70;2.50;;;;;;;;;;5340522;26;20572;-67
2024/04/17 11:26:03;;;;;;;4.50;2.10;;;;;;;;;;5346082;26;20032;-66
2024/04/17 11:28:28;;;;;;;7.25;2.47;;;;;;;;;;5351099;26;19996;-67
2024/04/17 11:30:54;;;;;;;5.25;2.03;;;;;;;;;;5378833;26;20000;-66
2024/04/17 11:33:19;;;;;;;4.53;2.10;;;;;;;;;;5375192;26;20036;-69
2024/04/17 11:35:44;;;;;;;6.60;2.42;;;;;;;;;;5353191;26;20080;-70
2024/04/17 11:38:13;;;;;;;4.32;2.15;;;;;;;;;;5313491;26;20017;-70
2024/04/17 11:40:42;;;;;;;4.70;2.10;;;;;;;;;;5345604;26;20005;-74
2024/04/17 11:43:14;;;;;;;5.40;2.58;;;;;;;;;;5363360;26;20037;-74
2024/04/17 11:45:40;;;;;;;6.65;1.90;;;;;;;;;;5342574;26;20077;-69
2024/04/17 11:48:06;;;;;;;5.93;2.17;;;;;;;;;;5377229;26;20019;-67
2024/04/17 11:50:31;;;;;;;3.60;2.17;;;;;;;;;;5377983;26;20015;-67
2024/04/17 11:52:56;;;;;;;6.32;2.00;;;;;;;;;;5343780;26;20069;-68
2024/04/17 11:55:22;;;;;;;5.70;2.05;;;;;;;;;;5342592;26;20082;-69
2024/04/17 11:57:48;;;;;;;6.50;2.10;;;;;;;;;;5352204;26;20015;-73
2024/04/17 12:00:13;;;;;;;4.72;2.10;;;;;;;;;;5378872;26;19996;-71
2024/04/17 12:02:39;;;;;;;5.63;1.95;;;;;;;;;;5371145;26;20119;-70
2024/04/17 12:05:05;;;;;;;7.07;2.00;;;;;;;;;;5348451;26;20028;-67
2024/04/17 12:07:30;;;;;;;7.25;1.95;;;;;;;;;;5375819;26;20004;-66
2024/04/17 12:09:56;;;;;;;7.30;1.88;;;;;;;;;;5379614;26;20000;-66
2024/04/17 12:12:22;;;;;;;6.40;2.22;;;;;;;;;;5377756;26;20015;-66
2024/04/17 12:14:49;;;;;;;10.00;2.05;;;;;;;;;;5378733;26;20078;-66
2024/04/17 12:17:15;;;;;;;5.63;2.33;;;;;;;;;;5378718;26;20491;-66
2024/04/17 12:19:40;;;;;;;8.85;2.22;;;;;;;;;;5361778;26;20285;-67
2024/04/17 12:22:05;;;;;;;5.32;1.75;;;;;;;;;;5352833;26;20011;-66
2024/04/17 12:27:19;;;;;;;5.47;2.20;;;;;;;;;;5395163;26;20016;-67
2024/04/17 12:29:45;;;;;;;3.97;2.33;;;;;;;;;;5343590;26;20025;-66
2024/04/17 12:32:10;;;;;;;5.95;2.13;;;;;;;;;;5340452;26;20005;-66
2024/04/17 12:34:37;;;;;;;7.45;1.88;;;;;;;;;;5371496;26;20128;-67
2024/04/17 12:37:02;;;;;;;3.63;1.70;;;;;;;;;;5379557;26;20411;-67
2024/04/17 12:39:27;;;;;;;4.72;1.60;;;;;;;;;;5379188;26;20019;-65
2024/04/17 12:41:53;;;;;;;5.20;1.63;;;;;;;;;;5375423;26;20001;-65
2024/04/17 12:44:19;;;;;;;3.05;1.77;;;;;;;;;;5341910;26;20008;-66
2024/04/17 12:46:44;;;;;;;5.85;1.52;;;;;;;;;;5363859;26;20075;-67
2024/04/17 12:49:10;;;;;;;6.05;1.98;;;;;;;;;;5348706;26;20344;-68
2024/04/17 12:51:35;;;;;;;6.72;2.03;;;;;;;;;;5343697;26;20001;-66
2024/04/17 12:54:00;;;;;;;3.40;1.70;;;;;;;;;;5342882;26;20001;-67
2024/04/17 12:56:26;;;;;;;5.63;1.77;;;;;;;;;;5346570;26;20016;-67
2024/04/17 12:58:51;;;;;;;3.53;1.55;;;;;;;;;;5378326;26;20000;-67
2024/04/17 13:01:16;;;;;;;3.65;1.65;;;;;;;;;;5376110;26;20004;-66
2024/04/17 13:03:42;;;;;;;7.78;1.80;;;;;;;;;;5368031;26;20018;-68
2024/04/17 13:06:07;;;;;;;9.35;1.88;;;;;;;;;;5368406;26;20004;-67
2024/04/17 13:08:33;;;;;;;2.28;1.63;;;;;;;;;;5378702;26;20040;-67
2024/04/17 13:11:00;;;;;;;4.05;1.77;;;;;;;;;;5404928;26;20314;-67
2024/04/17 13:13:25;;;;;;;4.15;1.40;;;;;;;;;;5378106;26;20074;-65
2024/04/17 13:15:54;;;;;;;5.22;2.08;;;;;;;;;;5356615;26;20457;-67
2024/04/17 13:18:19;;;;;;;3.35;1.73;;;;;;;;;;5367232;26;20395;-69
2024/04/17 13:20:52;;;;;;;4.50;1.65;;;;;;;;;;5377849;26;20015;-76
2024/04/17 13:23:17;;;;;;;4.43;1.90;;;;;;;;;;5371498;26;20005;-69
2024/04/17 13:25:52;;;;;;;5.47;2.83;;;;;;;;;;5342710;26;20075;-68
2024/04/17 13:28:18;;;;;;;12.73;2.40;;;;;;;;;;5313433;26;20015;-72
2024/04/17 13:30:43;;;;;;;6.07;1.60;;;;;;;;;;5327607;26;20000;-70
2024/04/17 13:33:09;;;;;;;7.43;1.80;;;;;;;;;;5347197;26;20366;-70
2024/04/17 13:35:35;;;;;;;3.05;1.50;;;;;;;;;;5361993;26;20075;-71
2024/04/17 13:38:00;;;;;;;6.47;1.60;;;;;;;;;;5379137;26;20078;-69
2024/04/17 13:40:25;;;;;;;4.13;1.70;;;;;;;;;;5377278;26;19997;-73
2024/04/17 13:42:51;;;;;;;5.43;1.67;;;;;;;;;;5349903;26;20272;-71
2024/04/17 13:45:16;;;;;;;7.97;2.30;;;;;;;;;;5350329;26;20008;-64
2024/04/17 13:47:41;;;;;;;5.68;1.85;;;;;;;;;;5374797;26;20004;-73
2024/04/17 13:50:08;;;;;;;6.05;1.50;;;;;;;;;;5360407;26;20000;-69
2024/04/17 13:52:33;;;;;;;6.82;1.83;;;;;;;;;;5348777;26;20029;-68
2024/04/17 13:54:59;;;;;;;7.22;1.67;;;;;;;;;;5372201;26;20015;-68
2024/04/17 13:57:24;;;;;;;5.05;1.80;;;;;;;;;;5379858;26;20359;-67
2024/04/17 13:59:49;;;;;;;6.55;1.90;;;;;;;;;;5371214;26;20041;-67
2024/04/17 14:02:15;;;;;;;3.33;1.77;;;;;;;;;;5381617;26;20295;-67
2024/04/17 14:04:40;;;;;;;5.63;1.70;;;;;;;;;;5359340;26;20316;-67
2024/04/17 14:07:06;;;;;;;7.18;1.50;;;;;;;;;;5360404;26;20004;-66
2024/04/17 14:09:31;;;;;;;3.42;1.80;;;;;;;;;;5366080;26;20297;-68
2024/04/17 14:11:56;;;;;;;8.40;1.58;;;;;;;;;;5367915;26;20009;-67
2024/04/17 14:14:23;;;;;;;6.45;1.90;;;;;;;;;;5352366;26;20051;-67
2024/04/17 14:16:50;;;;;;;4.30;1.77;;;;;;;;;;5372336;26;20000;-67
2024/04/17 14:19:16;;;;;;;3.97;1.95;;;;;;;;;;5380318;26;20007;-67
2024/04/17 14:21:41;;;;;;;2.83;1.48;;;;;;;;;;5349496;26;20039;-67
2024/04/17 14:24:06;;;;;;;4.15;1.60;;;;;;;;;;5344675;26;20005;-68
2024/04/17 14:26:32;;;;;;;4.28;1.88;;;;;;;;;;5345779;26;20004;-68
2024/04/17 14:28:57;;;;;;;10.05;1.90;;;;;;;;;;5353091;26;20004;-68
2024/04/17 14:31:22;;;;;;;4.65;1.67;;;;;;;;;;5378215;26;20000;-68
2024/04/17 14:33:48;;;;;;;5.07;1.67;;;;;;;;;;5373847;26;20417;-68
2024/04/17 14:36:14;;;;;;;4.20;1.55;;;;;;;;;;5369246;26;20036;-69
2024/04/17 14:38:41;;;;;;;3.67;1.48;;;;;;;;;;5353084;26;20016;-67